sensor_id;sensor_type;location;lat;lon;timestamp;P1;durP1;ratioP1;P2;durP2;ratioP2
44995;SDS011;30729;49.486;10.792;2022-11-13T00:00:53;34.90;;;16.10;;
44995;SDS011;30729;49.486;10.792;2022-11-13T00:03:19;31.40;;;16.67;;
44995;SDS011;30729;49.486;10.792;2022-11-13T00:05:44;32.10;;;16.17;;
44995;SDS011;30729;49.486;10.792;2022-11-13T00:08:10;23.02;;;13.80;;
44995;SDS011;30729;49.486;10.792;2022-11-13T00:10:36;20.88;;;12.18;;
44995;SDS011;30729;49.486;10.792;2022-11-13T00:13:01;19.95;;;12.30;;
44995;SDS011;30729;49.486;10.792;2022-11-13T00:15:26;19.05;;;11.18;;
44995;SDS011;30729;49.486;10.792;2022-11-13T00:17:52;16.98;;;9.80;;
44995;SDS011;30729;49.486;10.792;2022-11-13T00:20:17;14.90;;;9.38;;
44995;SDS011;30729;49.486;10.792;2022-11-13T00:22:43;14.45;;;9.25;;
44995;SDS011;30729;49.486;10.792;2022-11-13T00:25:08;16.92;;;8.85;;
44995;SDS011;30729;49.486;10.792;2022-11-13T00:27:34;22.08;;;8.05;;
44995;SDS011;30729;49.486;10.792;2022-11-13T00:29:59;13.48;;;8.15;;
44995;SDS011;30729;49.486;10.792;2022-11-13T00:32:25;15.40;;;8.52;;
44995;SDS011;30729;49.486;10.792;2022-11-13T00:34:50;16.38;;;9.00;;
44995;SDS011;30729;49.486;10.792;2022-11-13T00:37:17;22.65;;;8.80;;
44995;SDS011;30729;49.486;10.792;2022-11-13T00:39:42;14.25;;;7.53;;
44995;SDS011;30729;49.486;10.792;2022-11-13T00:42:08;17.30;;;9.15;;
44995;SDS011;30729;49.486;10.792;2022-11-13T00:44:33;17.48;;;8.27;;
44995;SDS011;30729;49.486;10.792;2022-11-13T00:46:58;21.45;;;7.43;;
44995;SDS011;30729;49.486;10.792;2022-11-13T00:49:24;13.13;;;6.72;;
44995;SDS011;30729;49.486;10.792;2022-11-13T00:51:49;14.98;;;6.47;;
44995;SDS011;30729;49.486;10.792;2022-11-13T00:54:14;11.60;;;7.35;;
44995;SDS011;30729;49.486;10.792;2022-11-13T00:56:40;19.70;;;7.45;;
44995;SDS011;30729;49.486;10.792;2022-11-13T00:59:05;14.48;;;7.43;;
44995;SDS011;30729;49.486;10.792;2022-11-13T01:01:31;15.60;;;6.78;;
44995;SDS011;30729;49.486;10.792;2022-11-13T01:03:56;15.70;;;6.55;;
44995;SDS011;30729;49.486;10.792;2022-11-13T01:06:23;11.55;;;6.75;;
44995;SDS011;30729;49.486;10.792;2022-11-13T01:08:52;17.13;;;6.88;;
44995;SDS011;30729;49.486;10.792;2022-11-13T01:11:20;19.33;;;7.47;;
44995;SDS011;30729;49.486;10.792;2022-11-13T01:13:47;14.23;;;8.40;;
44995;SDS011;30729;49.486;10.792;2022-11-13T01:16:14;16.60;;;8.75;;
44995;SDS011;30729;49.486;10.792;2022-11-13T01:18:42;32.92;;;9.40;;
44995;SDS011;30729;49.486;10.792;2022-11-13T01:21:09;21.50;;;9.43;;
44995;SDS011;30729;49.486;10.792;2022-11-13T01:23:45;16.67;;;10.20;;
44995;SDS011;30729;49.486;10.792;2022-11-13T01:26:14;32.47;;;10.88;;
44995;SDS011;30729;49.486;10.792;2022-11-13T01:28:41;15.07;;;9.10;;
44995;SDS011;30729;49.486;10.792;2022-11-13T01:31:09;40.17;;;9.88;;
44995;SDS011;30729;49.486;10.792;2022-11-13T01:33:36;28.58;;;9.75;;
44995;SDS011;30729;49.486;10.792;2022-11-13T01:36:03;30.63;;;8.98;;
44995;SDS011;30729;49.486;10.792;2022-11-13T01:38:31;15.65;;;8.65;;
44995;SDS011;30729;49.486;10.792;2022-11-13T01:40:58;17.77;;;7.30;;
44995;SDS011;30729;49.486;10.792;2022-11-13T01:43:24;22.38;;;7.07;;
44995;SDS011;30729;49.486;10.792;2022-11-13T01:48:27;9.38;;;6.00;;
44995;SDS011;30729;49.486;10.792;2022-11-13T01:51:06;11.07;;;6.40;;
44995;SDS011;30729;49.486;10.792;2022-11-13T01:53:36;13.68;;;6.80;;
44995;SDS011;30729;49.486;10.792;2022-11-13T01:56:01;13.15;;;7.10;;
44995;SDS011;30729;49.486;10.792;2022-11-13T01:58:27;13.00;;;7.72;;
44995;SDS011;30729;49.486;10.792;2022-11-13T02:00:53;10.32;;;7.05;;
44995;SDS011;30729;49.486;10.792;2022-11-13T02:03:18;12.93;;;6.55;;
44995;SDS011;30729;49.486;10.792;2022-11-13T02:05:44;11.65;;;7.50;;
44995;SDS011;30729;49.486;10.792;2022-11-13T02:08:10;14.18;;;7.82;;
44995;SDS011;30729;49.486;10.792;2022-11-13T02:10:35;13.10;;;7.45;;
44995;SDS011;30729;49.486;10.792;2022-11-13T02:13:00;12.38;;;7.63;;
44995;SDS011;30729;49.486;10.792;2022-11-13T02:15:26;16.42;;;7.80;;
44995;SDS011;30729;49.486;10.792;2022-11-13T02:17:56;20.27;;;8.95;;
44995;SDS011;30729;49.486;10.792;2022-11-13T02:23:29;14.32;;;6.68;;
44995;SDS011;30729;49.486;10.792;2022-11-13T02:26:00;16.02;;;8.02;;
44995;SDS011;30729;49.486;10.792;2022-11-13T02:28:27;10.25;;;6.43;;
44995;SDS011;30729;49.486;10.792;2022-11-13T02:30:52;16.17;;;7.00;;
44995;SDS011;30729;49.486;10.792;2022-11-13T02:33:20;15.35;;;6.93;;
44995;SDS011;30729;49.486;10.792;2022-11-13T02:35:48;11.73;;;7.78;;
44995;SDS011;30729;49.486;10.792;2022-11-13T02:38:14;16.63;;;7.57;;
44995;SDS011;30729;49.486;10.792;2022-11-13T02:40:39;20.08;;;7.18;;
44995;SDS011;30729;49.486;10.792;2022-11-13T02:43:05;15.63;;;6.32;;
44995;SDS011;30729;49.486;10.792;2022-11-13T02:45:30;17.65;;;6.90;;
44995;SDS011;30729;49.486;10.792;2022-11-13T02:47:57;14.43;;;6.47;;
44995;SDS011;30729;49.486;10.792;2022-11-13T02:50:24;16.83;;;7.07;;
44995;SDS011;30729;49.486;10.792;2022-11-13T02:52:49;12.98;;;7.35;;
44995;SDS011;30729;49.486;10.792;2022-11-13T02:55:14;16.15;;;7.57;;
44995;SDS011;30729;49.486;10.792;2022-11-13T02:57:40;15.95;;;7.70;;
44995;SDS011;30729;49.486;10.792;2022-11-13T03:00:05;13.68;;;6.55;;
44995;SDS011;30729;49.486;10.792;2022-11-13T03:02:31;12.90;;;7.40;;
44995;SDS011;30729;49.486;10.792;2022-11-13T03:04:57;13.20;;;7.45;;
44995;SDS011;30729;49.486;10.792;2022-11-13T03:07:22;11.18;;;6.47;;
44995;SDS011;30729;49.486;10.792;2022-11-13T03:09:47;15.18;;;7.15;;
44995;SDS011;30729;49.486;10.792;2022-11-13T03:12:13;11.07;;;7.43;;
44995;SDS011;30729;49.486;10.792;2022-11-13T03:14:38;8.32;;;5.55;;
44995;SDS011;30729;49.486;10.792;2022-11-13T03:17:03;10.57;;;6.13;;
44995;SDS011;30729;49.486;10.792;2022-11-13T03:19:29;10.02;;;6.68;;
44995;SDS011;30729;49.486;10.792;2022-11-13T03:21:54;9.75;;;6.47;;
44995;SDS011;30729;49.486;10.792;2022-11-13T03:24:19;13.23;;;6.43;;
44995;SDS011;30729;49.486;10.792;2022-11-13T03:26:45;12.25;;;6.53;;
44995;SDS011;30729;49.486;10.792;2022-11-13T03:29:10;9.45;;;6.63;;
44995;SDS011;30729;49.486;10.792;2022-11-13T03:31:36;16.60;;;7.07;;
44995;SDS011;30729;49.486;10.792;2022-11-13T03:34:01;15.52;;;7.13;;
44995;SDS011;30729;49.486;10.792;2022-11-13T03:36:27;12.80;;;7.25;;
44995;SDS011;30729;49.486;10.792;2022-11-13T03:38:53;10.77;;;6.05;;
44995;SDS011;30729;49.486;10.792;2022-11-13T03:41:18;10.55;;;6.18;;
44995;SDS011;30729;49.486;10.792;2022-11-13T03:43:44;10.48;;;6.47;;
44995;SDS011;30729;49.486;10.792;2022-11-13T03:46:10;10.88;;;6.10;;
44995;SDS011;30729;49.486;10.792;2022-11-13T03:48:35;14.43;;;6.88;;
44995;SDS011;30729;49.486;10.792;2022-11-13T03:51:01;13.25;;;7.13;;
44995;SDS011;30729;49.486;10.792;2022-11-13T03:53:26;10.60;;;6.30;;
44995;SDS011;30729;49.486;10.792;2022-11-13T03:55:52;10.77;;;6.22;;
44995;SDS011;30729;49.486;10.792;2022-11-13T03:58:17;11.57;;;6.85;;
44995;SDS011;30729;49.486;10.792;2022-11-13T04:00:43;10.93;;;7.30;;
44995;SDS011;30729;49.486;10.792;2022-11-13T04:03:09;11.20;;;6.38;;
44995;SDS011;30729;49.486;10.792;2022-11-13T04:05:34;11.43;;;6.30;;
44995;SDS011;30729;49.486;10.792;2022-11-13T04:08:00;14.73;;;7.75;;
44995;SDS011;30729;49.486;10.792;2022-11-13T04:10:25;18.63;;;8.00;;
44995;SDS011;30729;49.486;10.792;2022-11-13T04:12:51;11.38;;;6.30;;
44995;SDS011;30729;49.486;10.792;2022-11-13T04:15:16;14.02;;;7.10;;
44995;SDS011;30729;49.486;10.792;2022-11-13T04:17:42;11.10;;;6.00;;
44995;SDS011;30729;49.486;10.792;2022-11-13T04:20:07;12.18;;;6.95;;
44995;SDS011;30729;49.486;10.792;2022-11-13T04:22:33;15.35;;;6.93;;
44995;SDS011;30729;49.486;10.792;2022-11-13T04:24:59;15.00;;;6.75;;
44995;SDS011;30729;49.486;10.792;2022-11-13T04:27:24;11.73;;;6.60;;
44995;SDS011;30729;49.486;10.792;2022-11-13T04:29:50;12.05;;;6.82;;
44995;SDS011;30729;49.486;10.792;2022-11-13T04:32:15;10.70;;;6.55;;
44995;SDS011;30729;49.486;10.792;2022-11-13T04:34:40;39.97;;;14.18;;
44995;SDS011;30729;49.486;10.792;2022-11-13T04:37:06;53.35;;;19.48;;
44995;SDS011;30729;49.486;10.792;2022-11-13T04:39:31;46.97;;;17.85;;
44995;SDS011;30729;49.486;10.792;2022-11-13T04:41:57;26.63;;;11.95;;
44995;SDS011;30729;49.486;10.792;2022-11-13T04:44:41;18.30;;;9.73;;
44995;SDS011;30729;49.486;10.792;2022-11-13T04:47:06;17.27;;;7.63;;
44995;SDS011;30729;49.486;10.792;2022-11-13T04:49:32;15.27;;;7.05;;
44995;SDS011;30729;49.486;10.792;2022-11-13T04:51:57;14.68;;;7.47;;
44995;SDS011;30729;49.486;10.792;2022-11-13T04:54:23;16.17;;;7.30;;
44995;SDS011;30729;49.486;10.792;2022-11-13T04:56:48;22.67;;;7.22;;
44995;SDS011;30729;49.486;10.792;2022-11-13T04:59:13;14.65;;;7.00;;
44995;SDS011;30729;49.486;10.792;2022-11-13T05:01:39;16.88;;;6.82;;
44995;SDS011;30729;49.486;10.792;2022-11-13T05:04:04;24.38;;;6.40;;
44995;SDS011;30729;49.486;10.792;2022-11-13T05:06:30;13.20;;;6.40;;
44995;SDS011;30729;49.486;10.792;2022-11-13T05:08:55;13.48;;;6.80;;
44995;SDS011;30729;49.486;10.792;2022-11-13T05:11:20;17.45;;;7.07;;
44995;SDS011;30729;49.486;10.792;2022-11-13T05:13:46;12.00;;;6.57;;
44995;SDS011;30729;49.486;10.792;2022-11-13T05:16:12;15.40;;;7.07;;
44995;SDS011;30729;49.486;10.792;2022-11-13T05:18:39;11.15;;;6.28;;
44995;SDS011;30729;49.486;10.792;2022-11-13T05:21:06;14.05;;;6.63;;
44995;SDS011;30729;49.486;10.792;2022-11-13T05:23:32;12.45;;;6.40;;
44995;SDS011;30729;49.486;10.792;2022-11-13T05:26:11;13.10;;;6.47;;
44995;SDS011;30729;49.486;10.792;2022-11-13T05:28:37;23.20;;;6.85;;
44995;SDS011;30729;49.486;10.792;2022-11-13T05:33:39;10.57;;;6.45;;
44995;SDS011;30729;49.486;10.792;2022-11-13T05:36:06;8.57;;;5.97;;
44995;SDS011;30729;49.486;10.792;2022-11-13T05:38:34;12.50;;;6.60;;
44995;SDS011;30729;49.486;10.792;2022-11-13T05:43:33;10.68;;;6.25;;
44995;SDS011;30729;49.486;10.792;2022-11-13T05:46:32;15.85;;;7.50;;
44995;SDS011;30729;49.486;10.792;2022-11-13T05:48:55;22.67;;;7.60;;
44995;SDS011;30729;49.486;10.792;2022-11-13T05:51:23;17.95;;;7.45;;
44995;SDS011;30729;49.486;10.792;2022-11-13T05:53:52;18.10;;;7.07;;
44995;SDS011;30729;49.486;10.792;2022-11-13T05:56:19;15.02;;;6.78;;
44995;SDS011;30729;49.486;10.792;2022-11-13T05:58:47;16.42;;;6.30;;
44995;SDS011;30729;49.486;10.792;2022-11-13T06:01:24;13.30;;;6.47;;
44995;SDS011;30729;49.486;10.792;2022-11-13T06:03:52;11.85;;;6.93;;
44995;SDS011;30729;49.486;10.792;2022-11-13T06:06:19;11.57;;;6.60;;
44995;SDS011;30729;49.486;10.792;2022-11-13T06:08:46;11.35;;;6.70;;
44995;SDS011;30729;49.486;10.792;2022-11-13T06:11:14;11.10;;;5.75;;
44995;SDS011;30729;49.486;10.792;2022-11-13T06:13:41;9.73;;;5.75;;
44995;SDS011;30729;49.486;10.792;2022-11-13T06:16:08;12.73;;;6.38;;
44995;SDS011;30729;49.486;10.792;2022-11-13T06:18:41;11.75;;;6.82;;
44995;SDS011;30729;49.486;10.792;2022-11-13T06:21:11;10.05;;;6.25;;
44995;SDS011;30729;49.486;10.792;2022-11-13T06:23:41;9.13;;;5.95;;
44995;SDS011;30729;49.486;10.792;2022-11-13T06:26:08;10.68;;;6.97;;
44995;SDS011;30729;49.486;10.792;2022-11-13T06:28:39;12.98;;;6.18;;
44995;SDS011;30729;49.486;10.792;2022-11-13T06:31:09;10.40;;;6.57;;
44995;SDS011;30729;49.486;10.792;2022-11-13T06:33:38;9.50;;;5.93;;
44995;SDS011;30729;49.486;10.792;2022-11-13T06:36:06;9.63;;;6.25;;
44995;SDS011;30729;49.486;10.792;2022-11-13T06:38:34;9.07;;;5.43;;
44995;SDS011;30729;49.486;10.792;2022-11-13T06:41:01;13.23;;;6.97;;
44995;SDS011;30729;49.486;10.792;2022-11-13T06:43:28;9.57;;;6.03;;
44995;SDS011;30729;49.486;10.792;2022-11-13T06:45:54;10.60;;;6.30;;
44995;SDS011;30729;49.486;10.792;2022-11-13T06:48:20;8.95;;;5.88;;
44995;SDS011;30729;49.486;10.792;2022-11-13T06:50:46;10.77;;;5.35;;
44995;SDS011;30729;49.486;10.792;2022-11-13T06:53:12;10.40;;;6.20;;
44995;SDS011;30729;49.486;10.792;2022-11-13T06:55:48;12.80;;;6.80;;
44995;SDS011;30729;49.486;10.792;2022-11-13T06:58:14;13.90;;;6.65;;
44995;SDS011;30729;49.486;10.792;2022-11-13T07:00:40;12.48;;;6.65;;
44995;SDS011;30729;49.486;10.792;2022-11-13T07:03:17;12.93;;;7.65;;
44995;SDS011;30729;49.486;10.792;2022-11-13T07:05:50;9.82;;;6.43;;
44995;SDS011;30729;49.486;10.792;2022-11-13T07:08:16;9.85;;;5.80;;
44995;SDS011;30729;49.486;10.792;2022-11-13T07:10:42;9.98;;;5.43;;
44995;SDS011;30729;49.486;10.792;2022-11-13T07:13:07;10.45;;;6.35;;
44995;SDS011;30729;49.486;10.792;2022-11-13T07:15:34;9.10;;;5.82;;
44995;SDS011;30729;49.486;10.792;2022-11-13T07:18:03;9.50;;;5.00;;
44995;SDS011;30729;49.486;10.792;2022-11-13T07:20:30;9.43;;;5.45;;
44995;SDS011;30729;49.486;10.792;2022-11-13T07:22:56;15.88;;;6.70;;
44995;SDS011;30729;49.486;10.792;2022-11-13T07:25:23;10.85;;;6.43;;
44995;SDS011;30729;49.486;10.792;2022-11-13T07:27:49;8.73;;;5.93;;
44995;SDS011;30729;49.486;10.792;2022-11-13T07:30:14;10.57;;;6.18;;
44995;SDS011;30729;49.486;10.792;2022-11-13T07:32:40;10.23;;;6.65;;
44995;SDS011;30729;49.486;10.792;2022-11-13T07:35:05;11.40;;;6.82;;
44995;SDS011;30729;49.486;10.792;2022-11-13T07:37:31;12.68;;;7.45;;
44995;SDS011;30729;49.486;10.792;2022-11-13T07:39:56;11.90;;;6.57;;
44995;SDS011;30729;49.486;10.792;2022-11-13T07:42:22;11.75;;;6.60;;
44995;SDS011;30729;49.486;10.792;2022-11-13T07:44:48;14.63;;;7.38;;
44995;SDS011;30729;49.486;10.792;2022-11-13T07:47:13;12.90;;;7.00;;
44995;SDS011;30729;49.486;10.792;2022-11-13T07:49:39;11.98;;;7.32;;
44995;SDS011;30729;49.486;10.792;2022-11-13T07:52:04;10.43;;;6.45;;
44995;SDS011;30729;49.486;10.792;2022-11-13T07:54:30;11.15;;;5.95;;
44995;SDS011;30729;49.486;10.792;2022-11-13T07:56:55;10.68;;;6.45;;
44995;SDS011;30729;49.486;10.792;2022-11-13T07:59:21;11.95;;;6.75;;
44995;SDS011;30729;49.486;10.792;2022-11-13T08:01:46;16.40;;;9.05;;
44995;SDS011;30729;49.486;10.792;2022-11-13T08:04:12;14.70;;;8.55;;
44995;SDS011;30729;49.486;10.792;2022-11-13T08:06:37;12.27;;;7.78;;
44995;SDS011;30729;49.486;10.792;2022-11-13T08:09:03;12.13;;;6.90;;
44995;SDS011;30729;49.486;10.792;2022-11-13T08:11:28;12.60;;;6.28;;
44995;SDS011;30729;49.486;10.792;2022-11-13T08:13:54;11.38;;;7.75;;
44995;SDS011;30729;49.486;10.792;2022-11-13T08:16:19;15.95;;;9.13;;
44995;SDS011;30729;49.486;10.792;2022-11-13T08:18:47;17.08;;;9.02;;
44995;SDS011;30729;49.486;10.792;2022-11-13T08:21:13;18.15;;;10.40;;
44995;SDS011;30729;49.486;10.792;2022-11-13T08:23:39;17.67;;;11.25;;
44995;SDS011;30729;49.486;10.792;2022-11-13T08:26:05;20.85;;;13.20;;
44995;SDS011;30729;49.486;10.792;2022-11-13T08:28:31;26.08;;;15.45;;
44995;SDS011;30729;49.486;10.792;2022-11-13T08:30:57;29.67;;;16.63;;
44995;SDS011;30729;49.486;10.792;2022-11-13T08:33:23;24.92;;;15.65;;
44995;SDS011;30729;49.486;10.792;2022-11-13T08:35:54;17.50;;;12.85;;
44995;SDS011;30729;49.486;10.792;2022-11-13T08:38:22;19.48;;;11.93;;
44995;SDS011;30729;49.486;10.792;2022-11-13T08:40:47;18.92;;;12.13;;
44995;SDS011;30729;49.486;10.792;2022-11-13T08:43:13;18.23;;;10.88;;
44995;SDS011;30729;49.486;10.792;2022-11-13T08:45:38;18.98;;;11.10;;
44995;SDS011;30729;49.486;10.792;2022-11-13T08:48:04;15.57;;;8.75;;
44995;SDS011;30729;49.486;10.792;2022-11-13T08:50:30;15.20;;;8.93;;
44995;SDS011;30729;49.486;10.792;2022-11-13T08:52:57;13.90;;;8.77;;
44995;SDS011;30729;49.486;10.792;2022-11-13T08:55:24;13.38;;;8.43;;
44995;SDS011;30729;49.486;10.792;2022-11-13T08:57:49;14.48;;;8.65;;
44995;SDS011;30729;49.486;10.792;2022-11-13T09:00:15;17.25;;;9.55;;
44995;SDS011;30729;49.486;10.792;2022-11-13T09:02:41;13.73;;;8.98;;
44995;SDS011;30729;49.486;10.792;2022-11-13T09:05:07;12.95;;;8.27;;
44995;SDS011;30729;49.486;10.792;2022-11-13T09:07:33;14.02;;;8.02;;
44995;SDS011;30729;49.486;10.792;2022-11-13T09:09:58;14.65;;;7.50;;
44995;SDS011;30729;49.486;10.792;2022-11-13T09:12:24;12.48;;;7.95;;
44995;SDS011;30729;49.486;10.792;2022-11-13T09:14:49;13.13;;;7.65;;
44995;SDS011;30729;49.486;10.792;2022-11-13T09:17:15;10.73;;;6.43;;
44995;SDS011;30729;49.486;10.792;2022-11-13T09:19:40;12.60;;;7.18;;
44995;SDS011;30729;49.486;10.792;2022-11-13T09:22:06;12.32;;;6.05;;
44995;SDS011;30729;49.486;10.792;2022-11-13T09:24:31;10.63;;;5.95;;
44995;SDS011;30729;49.486;10.792;2022-11-13T09:26:57;10.82;;;6.18;;
44995;SDS011;30729;49.486;10.792;2022-11-13T09:29:22;10.68;;;5.47;;
44995;SDS011;30729;49.486;10.792;2022-11-13T09:31:48;10.02;;;5.60;;
44995;SDS011;30729;49.486;10.792;2022-11-13T09:34:14;12.52;;;5.70;;
44995;SDS011;30729;49.486;10.792;2022-11-13T09:36:40;9.93;;;5.40;;
44995;SDS011;30729;49.486;10.792;2022-11-13T09:39:05;12.95;;;5.65;;
44995;SDS011;30729;49.486;10.792;2022-11-13T09:41:36;8.77;;;4.95;;
44995;SDS011;30729;49.486;10.792;2022-11-13T09:50:28;8.45;;;4.40;;
44995;SDS011;30729;49.486;10.792;2022-11-13T09:52:53;10.40;;;6.03;;
44995;SDS011;30729;49.486;10.792;2022-11-13T09:55:20;8.90;;;5.25;;
44995;SDS011;30729;49.486;10.792;2022-11-13T09:57:56;11.45;;;6.00;;
44995;SDS011;30729;49.486;10.792;2022-11-13T10:00:31;11.02;;;5.22;;
44995;SDS011;30729;49.486;10.792;2022-11-13T10:11:31;11.32;;;5.30;;
44995;SDS011;30729;49.486;10.792;2022-11-13T10:14:00;9.98;;;5.40;;
44995;SDS011;30729;49.486;10.792;2022-11-13T10:16:31;8.93;;;4.80;;
44995;SDS011;30729;49.486;10.792;2022-11-13T10:22:14;9.27;;;5.53;;
44995;SDS011;30729;49.486;10.792;2022-11-13T10:24:45;10.57;;;5.63;;
44995;SDS011;30729;49.486;10.792;2022-11-13T10:27:14;9.52;;;4.95;;
44995;SDS011;30729;49.486;10.792;2022-11-13T10:29:40;8.10;;;4.72;;
44995;SDS011;30729;49.486;10.792;2022-11-13T10:40:26;8.60;;;4.70;;
44995;SDS011;30729;49.486;10.792;2022-11-13T10:42:53;9.77;;;4.95;;
44995;SDS011;30729;49.486;10.792;2022-11-13T10:47:53;9.57;;;5.03;;
44995;SDS011;30729;49.486;10.792;2022-11-13T10:52:48;10.60;;;5.10;;
44995;SDS011;30729;49.486;10.792;2022-11-13T10:58:13;10.45;;;4.70;;
44995;SDS011;30729;49.486;10.792;2022-11-13T11:00:42;8.38;;;4.68;;
44995;SDS011;30729;49.486;10.792;2022-11-13T11:03:15;9.38;;;5.45;;
44995;SDS011;30729;49.486;10.792;2022-11-13T11:05:55;10.40;;;5.43;;
44995;SDS011;30729;49.486;10.792;2022-11-13T11:08:33;9.02;;;5.65;;
44995;SDS011;30729;49.486;10.792;2022-11-13T11:11:06;8.98;;;5.55;;
44995;SDS011;30729;49.486;10.792;2022-11-13T11:14:03;11.20;;;5.18;;
44995;SDS011;30729;49.486;10.792;2022-11-13T11:16:42;9.77;;;5.47;;
44995;SDS011;30729;49.486;10.792;2022-11-13T11:19:11;10.18;;;5.25;;
44995;SDS011;30729;49.486;10.792;2022-11-13T11:21:39;10.75;;;5.25;;
44995;SDS011;30729;49.486;10.792;2022-11-13T11:24:18;10.18;;;5.35;;
44995;SDS011;30729;49.486;10.792;2022-11-13T11:32:08;9.10;;;5.03;;
44995;SDS011;30729;49.486;10.792;2022-11-13T11:37:15;10.45;;;5.38;;
44995;SDS011;30729;49.486;10.792;2022-11-13T11:39:47;9.32;;;5.30;;
44995;SDS011;30729;49.486;10.792;2022-11-13T11:42:21;10.18;;;5.35;;
44995;SDS011;30729;49.486;10.792;2022-11-13T11:47:37;8.38;;;4.57;;
44995;SDS011;30729;49.486;10.792;2022-11-13T11:50:04;10.38;;;5.20;;
44995;SDS011;30729;49.486;10.792;2022-11-13T12:12:36;11.05;;;5.03;;
44995;SDS011;30729;49.486;10.792;2022-11-13T12:15:25;10.57;;;5.18;;
44995;SDS011;30729;49.486;10.792;2022-11-13T12:36:34;8.82;;;4.80;;
44995;SDS011;30729;49.486;10.792;2022-11-13T12:41:42;10.15;;;5.15;;
44995;SDS011;30729;49.486;10.792;2022-11-13T12:44:27;7.97;;;4.47;;
44995;SDS011;30729;49.486;10.792;2022-11-13T12:46:55;9.00;;;4.80;;
44995;SDS011;30729;49.486;10.792;2022-11-13T12:49:28;10.52;;;4.70;;
44995;SDS011;30729;49.486;10.792;2022-11-13T12:52:00;11.43;;;5.63;;
44995;SDS011;30729;49.486;10.792;2022-11-13T12:54:40;10.70;;;5.32;;
44995;SDS011;30729;49.486;10.792;2022-11-13T12:59:41;10.13;;;5.18;;
44995;SDS011;30729;49.486;10.792;2022-11-13T13:02:35;8.70;;;4.85;;
44995;SDS011;30729;49.486;10.792;2022-11-13T13:08:08;10.00;;;5.55;;
44995;SDS011;30729;49.486;10.792;2022-11-13T13:10:56;11.18;;;5.20;;
44995;SDS011;30729;49.486;10.792;2022-11-13T13:16:24;8.10;;;4.75;;
44995;SDS011;30729;49.486;10.792;2022-11-13T13:18:51;9.77;;;5.28;;
44995;SDS011;30729;49.486;10.792;2022-11-13T13:21:17;8.52;;;4.70;;
44995;SDS011;30729;49.486;10.792;2022-11-13T13:23:45;9.70;;;4.88;;
44995;SDS011;30729;49.486;10.792;2022-11-13T13:26:17;9.63;;;4.97;;
44995;SDS011;30729;49.486;10.792;2022-11-13T13:28:55;9.32;;;4.95;;
44995;SDS011;30729;49.486;10.792;2022-11-13T13:48:25;10.48;;;4.65;;
44995;SDS011;30729;49.486;10.792;2022-11-13T13:50:53;8.23;;;4.15;;
44995;SDS011;30729;49.486;10.792;2022-11-13T13:53:21;11.23;;;5.38;;
44995;SDS011;30729;49.486;10.792;2022-11-13T13:55:51;10.02;;;4.60;;
44995;SDS011;30729;49.486;10.792;2022-11-13T13:58:31;7.40;;;4.47;;
44995;SDS011;30729;49.486;10.792;2022-11-13T14:01:00;13.15;;;4.85;;
44995;SDS011;30729;49.486;10.792;2022-11-13T14:03:27;8.27;;;4.22;;
44995;SDS011;30729;49.486;10.792;2022-11-13T14:05:53;8.50;;;4.25;;
44995;SDS011;30729;49.486;10.792;2022-11-13T14:08:24;7.22;;;3.72;;
44995;SDS011;30729;49.486;10.792;2022-11-13T14:10:50;6.65;;;3.28;;
44995;SDS011;30729;49.486;10.792;2022-11-13T14:13:24;6.82;;;3.55;;
44995;SDS011;30729;49.486;10.792;2022-11-13T14:16:01;6.53;;;3.00;;
44995;SDS011;30729;49.486;10.792;2022-11-13T14:18:28;6.60;;;2.97;;
44995;SDS011;30729;49.486;10.792;2022-11-13T14:20:55;7.43;;;2.70;;
44995;SDS011;30729;49.486;10.792;2022-11-13T14:23:36;6.05;;;3.13;;
44995;SDS011;30729;49.486;10.792;2022-11-13T14:26:06;7.22;;;3.50;;
44995;SDS011;30729;49.486;10.792;2022-11-13T14:31:45;8.57;;;4.15;;
44995;SDS011;30729;49.486;10.792;2022-11-13T14:34:13;10.57;;;4.43;;
44995;SDS011;30729;49.486;10.792;2022-11-13T14:36:42;7.72;;;3.80;;
44995;SDS011;30729;49.486;10.792;2022-11-13T14:39:27;8.60;;;4.25;;
44995;SDS011;30729;49.486;10.792;2022-11-13T14:41:56;9.52;;;4.18;;
44995;SDS011;30729;49.486;10.792;2022-11-13T14:44:27;10.55;;;4.00;;
44995;SDS011;30729;49.486;10.792;2022-11-13T14:47:03;8.10;;;4.05;;
44995;SDS011;30729;49.486;10.792;2022-11-13T14:49:31;8.63;;;4.63;;
44995;SDS011;30729;49.486;10.792;2022-11-13T14:51:58;8.63;;;4.10;;
44995;SDS011;30729;49.486;10.792;2022-11-13T14:54:35;9.45;;;4.35;;
44995;SDS011;30729;49.486;10.792;2022-11-13T14:57:08;8.57;;;4.35;;
44995;SDS011;30729;49.486;10.792;2022-11-13T14:59:35;8.85;;;4.78;;
44995;SDS011;30729;49.486;10.792;2022-11-13T15:02:01;9.70;;;4.65;;
44995;SDS011;30729;49.486;10.792;2022-11-13T15:04:26;10.82;;;4.38;;
44995;SDS011;30729;49.486;10.792;2022-11-13T15:06:52;10.52;;;4.85;;
44995;SDS011;30729;49.486;10.792;2022-11-13T15:09:22;9.60;;;4.50;;
44995;SDS011;30729;49.486;10.792;2022-11-13T15:11:49;9.48;;;4.60;;
44995;SDS011;30729;49.486;10.792;2022-11-13T15:14:15;8.27;;;4.35;;
44995;SDS011;30729;49.486;10.792;2022-11-13T15:16:42;9.88;;;5.28;;
44995;SDS011;30729;49.486;10.792;2022-11-13T15:19:17;10.00;;;5.20;;
44995;SDS011;30729;49.486;10.792;2022-11-13T15:21:54;12.32;;;5.50;;
44995;SDS011;30729;49.486;10.792;2022-11-13T15:24:20;13.07;;;6.32;;
44995;SDS011;30729;49.486;10.792;2022-11-13T15:26:46;9.05;;;5.63;;
44995;SDS011;30729;49.486;10.792;2022-11-13T15:29:11;10.60;;;5.60;;
44995;SDS011;30729;49.486;10.792;2022-11-13T15:31:38;10.15;;;5.82;;
44995;SDS011;30729;49.486;10.792;2022-11-13T15:34:05;11.23;;;5.85;;
44995;SDS011;30729;49.486;10.792;2022-11-13T15:36:33;11.02;;;5.78;;
44995;SDS011;30729;49.486;10.792;2022-11-13T15:38:58;11.45;;;6.25;;
44995;SDS011;30729;49.486;10.792;2022-11-13T15:41:24;11.32;;;6.82;;
44995;SDS011;30729;49.486;10.792;2022-11-13T15:43:52;9.57;;;5.50;;
44995;SDS011;30729;49.486;10.792;2022-11-13T15:46:20;11.63;;;5.70;;
44995;SDS011;30729;49.486;10.792;2022-11-13T15:48:47;10.57;;;6.18;;
44995;SDS011;30729;49.486;10.792;2022-11-13T15:53:38;15.52;;;8.20;;
44995;SDS011;30729;49.486;10.792;2022-11-13T15:56:04;16.15;;;9.02;;
44995;SDS011;30729;49.486;10.792;2022-11-13T15:58:30;16.77;;;8.70;;
44995;SDS011;30729;49.486;10.792;2022-11-13T16:00:55;13.60;;;7.57;;
44995;SDS011;30729;49.486;10.792;2022-11-13T16:03:21;14.30;;;8.75;;
44995;SDS011;30729;49.486;10.792;2022-11-13T16:05:47;17.27;;;9.75;;
44995;SDS011;30729;49.486;10.792;2022-11-13T16:08:14;13.43;;;8.18;;
44995;SDS011;30729;49.486;10.792;2022-11-13T16:10:40;12.75;;;7.13;;
44995;SDS011;30729;49.486;10.792;2022-11-13T16:13:05;14.73;;;7.25;;
44995;SDS011;30729;49.486;10.792;2022-11-13T16:15:30;12.52;;;7.00;;
44995;SDS011;30729;49.486;10.792;2022-11-13T16:17:56;13.90;;;6.60;;
44995;SDS011;30729;49.486;10.792;2022-11-13T16:20:23;12.27;;;6.22;;
44995;SDS011;30729;49.486;10.792;2022-11-13T16:22:49;12.75;;;5.63;;
44995;SDS011;30729;49.486;10.792;2022-11-13T16:25:16;9.60;;;5.32;;
44995;SDS011;30729;49.486;10.792;2022-11-13T16:27:43;11.55;;;5.65;;
44995;SDS011;30729;49.486;10.792;2022-11-13T16:30:13;11.13;;;5.93;;
44995;SDS011;30729;49.486;10.792;2022-11-13T16:32:39;14.60;;;5.78;;
44995;SDS011;30729;49.486;10.792;2022-11-13T16:35:05;10.27;;;5.88;;